Accueil
METAR-TAF:

METAR-TAF

Aéroports :

Le Helder, Pays-Bas

latitude: 52-55N, longitude: 004-47E, altitude: 0 m

Observation

Le bulletin a été fait il y a 39 minutes, à 23:25 UTC
Vent 7 kt de sud-est, variant entre est et sud
Température 18°C
Humidité 77%
Pression 1017 hPa
Visibilité 10 km ou plus
Ciel couvert à une hauteur de 15000 ft

METAR: EHKD 172325Z AUTO 13007KT 090V170 9999 OVC150 18/14 Q1017 BLU

Heure: 02:04 (00:04 UTC)

Prévision

Le bulletin a été fait il y a 7 heures et 34 minutes, à 16:30 UTC
Prévision valable du 17 à 17 UTC au 18 à 05 UTC
Vent 5 kt de est/sud-est
Visibilité 10 km ou plus
Quelques nuages à une hauteur de 4500 ft
Evoluant progressivement
du 18 à 02 UTC au 18 à 05 UTC
Vent 5 kt de ouest/sud-ouest

TAF: EHKD 171630Z 1717/1805 11005KT 9999 FEW045 BECMG 1802/1805 24005KT

Observations et prévisions météorologiques de plus de 4000 aéroports (messages METAR et TAF).

Les stations disponibles sont représentées par des disques jaunes et rouges sur la carte.

Passer la souris dessus pour voir le nom de la station.

Cliquer dessus pour voir les observations et prévisions météorologiques.

Pour changer de carte: cliquez sur les boutons verts avec une croix noire pour zoomer, sur le bouton vert avec un tiret pour effectuer un zoom arrière, ou sur les flèches vertes pour les cartes adjacentes.


METAR-TAF: